Flight Track Log - Related Links

Times and Time Zones

All times are in EDT time to prevent confusion due to time zone crossing. See the UCA3596 flight status page for this flight to view local times or setup timezone preferences in your user account.

Time Position Orientation Groundspeed Altitude Reporting Facility
EDT Latitude Longitude Course Direction KTS MPH feet Rate Location/Type
Wed 01:38:00 PM 39.3182 -77.2991 19° North  Level Estimated
Wed 01:39:00 PM 39.3800 -77.2722 19° North  Level Estimated
Wed 01:40:00 PM 39.4417 -77.2451 19° North  Level Estimated
Wed 01:41:00 PM 39.5035 -77.2181 19° North  Level Estimated
Wed 01:42:00 PM 39.5652 -77.1910 19° North  Level Estimated
Wed 01:43:00 PM 39.6270 -77.1638 19° North  Level Estimated
Wed 01:44:00 PM 39.6887 -77.1366 19° North  Level Estimated
Wed 01:45:00 PM 39.7505 -77.1093 19° North  Level Estimated
Wed 01:46:00 PM 39.8122 -77.0820 19° North  Level Estimated
Wed 01:47:00 PM 39.8739 -77.0547 19° North  Level Estimated
Wed 01:48:00 PM 39.9356 -77.0273 19° North  Level Estimated
Wed 01:49:00 PM 39.9973 -76.9998 19° North  Level Estimated
Wed 01:50:00 PM 40.0590 -76.9723 19° North  Level Estimated
Wed 01:51:00 PM 40.1207 -76.9448 19° North  Level Estimated
Wed 01:52:00 PM 40.1824 -76.9172 19° North  Level Estimated
Wed 01:53:00 PM 40.2441 -76.8895 19° North  Level Estimated
Wed 01:54:00 PM 40.3058 -76.8618 19° North  Level Estimated
Wed 01:55:00 PM 40.3674 -76.8341 19° North  Level Estimated
Wed 01:56:00 PM 40.4291 -76.8063 19° North  Level Estimated
Wed 01:57:00 PM 40.4907 -76.7784 19° North  Level Estimated
Wed 01:58:00 PM 40.5524 -76.7505 19° North  Level Estimated
Wed 01:59:00 PM 40.6140 -76.7225 19° North  Level Estimated
Wed 02:00:00 PM 40.6757 -76.6945 19° North  Level Estimated
Wed 02:01:00 PM 40.7373 -76.6665 19° North  Level Estimated
Wed 02:02:00 PM 40.7989 -76.6383 19° North  Level Estimated
Wed 02:03:00 PM 40.8605 -76.6102 19° North  Level Estimated
Wed 02:04:00 PM 40.9221 -76.5819 19° North  Level Estimated
Wed 02:05:00 PM 40.9837 -76.5537 19° North  Level Estimated
Wed 02:06:00 PM 41.0453 -76.5253 19° North  Level Estimated
Wed 02:07:00 PM 41.1069 -76.4970 19° North  Level Estimated
Wed 02:08:00 PM 41.1928 -76.4573 19° North  Level Estimated
Wed 02:09:00 PM 41.2787 -76.4175 19° North  Level Estimated
Wed 02:10:00 PM 41.3645 -76.3776 19° North  Level Estimated
Wed 02:11:00 PM 41.4504 -76.3377 19° North  Level Estimated
Wed 02:12:00 PM 41.5362 -76.2976 19° North  Level Estimated
Wed 02:13:00 PM 41.6220 -76.2574 19° North  Level Estimated
Wed 02:14:00 PM 41.7078 -76.2171 19° North  Level Estimated
Wed 02:15:00 PM 41.7936 -76.1767 19° North  Level Estimated
Wed 02:16:00 PM 41.8794 -76.1361 19° North  Level Estimated
Wed 02:17:00 PM 41.9651 -76.0955 19° North  Level Estimated
Wed 02:18:00 PM 42.0509 -76.0548 19° North  Level Estimated
Wed 02:19:00 PM 42.1366 -76.0139 19° North  Level Estimated
Wed 02:20:00 PM 42.2084 -75.9796 19° North  Level Estimated
Wed 02:21:00 PM 42.2084 -75.9796 35° Northeast  Level Estimated
Wed 02:22:00 PM 42.2084 -75.9796 35° Northeast  Level Estimated
Wed 02:23:00 PM 42.2084 -75.9796 35° Northeast  Level Estimated
Wed 02:24:00 PM 42.2084 -75.9796 35° Northeast  Level Estimated
Wed 02:25:00 PM 42.2084 -75.9796 35° Northeast  Level Estimated
Wed 02:26:00 PM 42.2084 -75.9796 35° Northeast  Level Estimated

Login

Don't have an account? Register now (free) for customized features, flight alerts, and more!